sensor_id;sensor_type;location;lat;lon;timestamp;P1;durP1;ratioP1;P2;durP2;ratioP2
46158;SDS011;31888;44.512;26.104;2022-08-18T00:01:16;16.77;;;10.30;;
46158;SDS011;31888;44.512;26.104;2022-08-18T00:03:21;15.15;;;10.18;;
46158;SDS011;31888;44.512;26.104;2022-08-18T00:05:45;13.27;;;10.02;;
46158;SDS011;31888;44.512;26.104;2022-08-18T00:07:50;14.95;;;10.52;;
46158;SDS011;31888;44.512;26.104;2022-08-18T00:09:56;14.05;;;10.38;;
46158;SDS011;31888;44.512;26.104;2022-08-18T00:12:01;13.80;;;10.30;;
46158;SDS011;31888;44.512;26.104;2022-08-18T00:14:11;15.02;;;9.55;;
46158;SDS011;31888;44.512;26.104;2022-08-18T00:16:23;14.82;;;11.13;;
46158;SDS011;31888;44.512;26.104;2022-08-18T00:18:27;13.43;;;9.88;;
46158;SDS011;31888;44.512;26.104;2022-08-18T00:20:31;16.33;;;11.02;;
46158;SDS011;31888;44.512;26.104;2022-08-18T00:22:36;16.98;;;10.27;;
46158;SDS011;31888;44.512;26.104;2022-08-18T00:24:42;14.75;;;10.45;;
46158;SDS011;31888;44.512;26.104;2022-08-18T00:26:52;16.42;;;10.40;;
46158;SDS011;31888;44.512;26.104;2022-08-18T00:28:57;17.48;;;9.93;;
46158;SDS011;31888;44.512;26.104;2022-08-18T00:31:01;17.85;;;11.07;;
46158;SDS011;31888;44.512;26.104;2022-08-18T00:33:08;15.35;;;10.77;;
46158;SDS011;31888;44.512;26.104;2022-08-18T00:35:13;17.40;;;10.50;;
46158;SDS011;31888;44.512;26.104;2022-08-18T00:37:20;16.17;;;9.77;;
46158;SDS011;31888;44.512;26.104;2022-08-18T00:39:25;15.27;;;10.13;;
46158;SDS011;31888;44.512;26.104;2022-08-18T00:41:40;17.20;;;10.70;;
46158;SDS011;31888;44.512;26.104;2022-08-18T00:43:47;14.65;;;10.38;;
46158;SDS011;31888;44.512;26.104;2022-08-18T00:45:53;13.68;;;9.75;;
46158;SDS011;31888;44.512;26.104;2022-08-18T00:47:59;13.77;;;10.18;;
46158;SDS011;31888;44.512;26.104;2022-08-18T00:50:03;14.43;;;9.88;;
46158;SDS011;31888;44.512;26.104;2022-08-18T00:52:16;14.10;;;10.57;;
46158;SDS011;31888;44.512;26.104;2022-08-18T00:54:22;13.93;;;9.88;;
46158;SDS011;31888;44.512;26.104;2022-08-18T00:56:32;14.30;;;10.45;;
46158;SDS011;31888;44.512;26.104;2022-08-18T00:58:39;17.65;;;10.15;;
46158;SDS011;31888;44.512;26.104;2022-08-18T01:00:49;13.77;;;10.18;;
46158;SDS011;31888;44.512;26.104;2022-08-18T01:02:55;14.40;;;10.55;;
46158;SDS011;31888;44.512;26.104;2022-08-18T01:05:04;15.55;;;10.15;;
46158;SDS011;31888;44.512;26.104;2022-08-18T01:07:15;13.63;;;10.25;;
46158;SDS011;31888;44.512;26.104;2022-08-18T01:09:22;15.43;;;10.50;;
46158;SDS011;31888;44.512;26.104;2022-08-18T01:11:26;18.27;;;10.75;;
46158;SDS011;31888;44.512;26.104;2022-08-18T01:13:31;17.70;;;10.68;;
46158;SDS011;31888;44.512;26.104;2022-08-18T01:15:39;13.30;;;9.80;;
46158;SDS011;31888;44.512;26.104;2022-08-18T01:17:45;14.48;;;10.93;;
46158;SDS011;31888;44.512;26.104;2022-08-18T01:20:08;13.52;;;10.52;;
46158;SDS011;31888;44.512;26.104;2022-08-18T01:22:51;14.40;;;10.40;;
46158;SDS011;31888;44.512;26.104;2022-08-18T01:25:01;16.90;;;10.88;;
46158;SDS011;31888;44.512;26.104;2022-08-18T01:27:27;14.10;;;10.27;;
46158;SDS011;31888;44.512;26.104;2022-08-18T01:29:34;14.80;;;10.20;;
46158;SDS011;31888;44.512;26.104;2022-08-18T01:31:47;13.73;;;9.50;;
46158;SDS011;31888;44.512;26.104;2022-08-18T01:33:57;15.02;;;10.82;;
46158;SDS011;31888;44.512;26.104;2022-08-18T01:36:04;17.73;;;10.25;;
46158;SDS011;31888;44.512;26.104;2022-08-18T01:38:16;14.75;;;10.40;;
46158;SDS011;31888;44.512;26.104;2022-08-18T01:40:24;20.88;;;10.43;;
46158;SDS011;31888;44.512;26.104;2022-08-18T01:42:48;15.50;;;10.35;;
46158;SDS011;31888;44.512;26.104;2022-08-18T01:44:53;16.83;;;11.80;;
46158;SDS011;31888;44.512;26.104;2022-08-18T01:46:58;15.35;;;10.43;;
46158;SDS011;31888;44.512;26.104;2022-08-18T01:49:02;17.23;;;10.77;;
46158;SDS011;31888;44.512;26.104;2022-08-18T01:51:09;16.13;;;10.75;;
46158;SDS011;31888;44.512;26.104;2022-08-18T01:53:15;12.88;;;10.30;;
46158;SDS011;31888;44.512;26.104;2022-08-18T01:55:20;14.55;;;11.05;;
46158;SDS011;31888;44.512;26.104;2022-08-18T01:57:24;14.25;;;11.00;;
46158;SDS011;31888;44.512;26.104;2022-08-18T01:59:29;15.80;;;10.57;;
46158;SDS011;31888;44.512;26.104;2022-08-18T02:01:36;15.57;;;10.70;;
46158;SDS011;31888;44.512;26.104;2022-08-18T02:03:50;20.00;;;10.85;;
46158;SDS011;31888;44.512;26.104;2022-08-18T02:06:17;14.02;;;11.13;;
46158;SDS011;31888;44.512;26.104;2022-08-18T02:08:35;16.05;;;10.57;;
46158;SDS011;31888;44.512;26.104;2022-08-18T02:10:44;15.25;;;10.63;;
46158;SDS011;31888;44.512;26.104;2022-08-18T02:12:49;16.73;;;10.77;;
46158;SDS011;31888;44.512;26.104;2022-08-18T02:14:53;16.73;;;10.43;;
46158;SDS011;31888;44.512;26.104;2022-08-18T02:16:58;16.90;;;10.68;;
46158;SDS011;31888;44.512;26.104;2022-08-18T02:19:04;16.55;;;10.70;;
46158;SDS011;31888;44.512;26.104;2022-08-18T02:21:08;18.40;;;12.00;;
46158;SDS011;31888;44.512;26.104;2022-08-18T02:23:20;17.20;;;12.43;;
46158;SDS011;31888;44.512;26.104;2022-08-18T02:25:26;17.95;;;12.05;;
46158;SDS011;31888;44.512;26.104;2022-08-18T02:27:30;15.48;;;11.85;;
46158;SDS011;31888;44.512;26.104;2022-08-18T02:29:35;16.15;;;12.05;;
46158;SDS011;31888;44.512;26.104;2022-08-18T02:31:40;13.57;;;10.43;;
46158;SDS011;31888;44.512;26.104;2022-08-18T02:33:45;17.10;;;11.60;;
46158;SDS011;31888;44.512;26.104;2022-08-18T02:35:53;18.08;;;12.75;;
46158;SDS011;31888;44.512;26.104;2022-08-18T02:38:00;18.08;;;10.60;;
46158;SDS011;31888;44.512;26.104;2022-08-18T02:40:08;14.20;;;11.30;;
46158;SDS011;31888;44.512;26.104;2022-08-18T02:42:18;14.77;;;10.77;;
46158;SDS011;31888;44.512;26.104;2022-08-18T02:44:23;16.80;;;10.90;;
46158;SDS011;31888;44.512;26.104;2022-08-18T02:46:27;17.15;;;11.23;;
46158;SDS011;31888;44.512;26.104;2022-08-18T02:48:32;15.85;;;11.77;;
46158;SDS011;31888;44.512;26.104;2022-08-18T02:50:37;16.15;;;12.10;;
46158;SDS011;31888;44.512;26.104;2022-08-18T02:52:47;14.88;;;10.93;;
46158;SDS011;31888;44.512;26.104;2022-08-18T02:54:52;14.25;;;10.95;;
46158;SDS011;31888;44.512;26.104;2022-08-18T02:56:56;17.85;;;11.98;;
46158;SDS011;31888;44.512;26.104;2022-08-18T02:59:03;18.48;;;11.15;;
46158;SDS011;31888;44.512;26.104;2022-08-18T03:01:09;17.30;;;12.93;;
46158;SDS011;31888;44.512;26.104;2022-08-18T03:03:14;18.63;;;12.40;;
46158;SDS011;31888;44.512;26.104;2022-08-18T03:05:19;13.95;;;10.20;;
46158;SDS011;31888;44.512;26.104;2022-08-18T03:07:24;13.15;;;10.50;;
46158;SDS011;31888;44.512;26.104;2022-08-18T03:09:29;14.63;;;10.60;;
46158;SDS011;31888;44.512;26.104;2022-08-18T03:11:34;16.05;;;11.07;;
46158;SDS011;31888;44.512;26.104;2022-08-18T03:13:39;15.70;;;10.95;;
46158;SDS011;31888;44.512;26.104;2022-08-18T03:15:45;14.80;;;10.80;;
46158;SDS011;31888;44.512;26.104;2022-08-18T03:17:57;17.67;;;10.55;;
46158;SDS011;31888;44.512;26.104;2022-08-18T03:20:03;15.82;;;11.05;;
46158;SDS011;31888;44.512;26.104;2022-08-18T03:22:10;15.45;;;10.90;;
46158;SDS011;31888;44.512;26.104;2022-08-18T03:24:31;18.10;;;11.63;;
46158;SDS011;31888;44.512;26.104;2022-08-18T03:26:38;15.70;;;10.93;;
46158;SDS011;31888;44.512;26.104;2022-08-18T03:28:45;15.00;;;10.88;;
46158;SDS011;31888;44.512;26.104;2022-08-18T03:30:52;15.70;;;10.98;;
46158;SDS011;31888;44.512;26.104;2022-08-18T03:32:57;14.85;;;10.25;;
46158;SDS011;31888;44.512;26.104;2022-08-18T03:35:01;13.63;;;10.98;;
46158;SDS011;31888;44.512;26.104;2022-08-18T03:37:06;17.15;;;11.00;;
46158;SDS011;31888;44.512;26.104;2022-08-18T03:39:11;17.67;;;11.82;;
46158;SDS011;31888;44.512;26.104;2022-08-18T03:41:17;13.00;;;10.35;;
46158;SDS011;31888;44.512;26.104;2022-08-18T03:43:44;13.63;;;10.80;;
46158;SDS011;31888;44.512;26.104;2022-08-18T03:45:54;15.02;;;10.95;;
46158;SDS011;31888;44.512;26.104;2022-08-18T03:50:07;17.48;;;10.82;;
46158;SDS011;31888;44.512;26.104;2022-08-18T03:52:15;17.05;;;10.68;;
46158;SDS011;31888;44.512;26.104;2022-08-18T03:54:22;16.98;;;10.88;;
46158;SDS011;31888;44.512;26.104;2022-08-18T03:56:28;21.30;;;12.35;;
46158;SDS011;31888;44.512;26.104;2022-08-18T03:58:34;15.60;;;11.45;;
46158;SDS011;31888;44.512;26.104;2022-08-18T04:00:39;18.48;;;11.50;;
46158;SDS011;31888;44.512;26.104;2022-08-18T04:02:45;20.42;;;11.52;;
46158;SDS011;31888;44.512;26.104;2022-08-18T04:04:50;14.93;;;11.23;;
46158;SDS011;31888;44.512;26.104;2022-08-18T04:06:55;19.50;;;12.52;;
46158;SDS011;31888;44.512;26.104;2022-08-18T04:09:03;14.85;;;10.85;;
46158;SDS011;31888;44.512;26.104;2022-08-18T04:11:08;15.75;;;11.07;;
46158;SDS011;31888;44.512;26.104;2022-08-18T04:13:14;16.65;;;11.25;;
46158;SDS011;31888;44.512;26.104;2022-08-18T04:15:18;17.92;;;11.45;;
46158;SDS011;31888;44.512;26.104;2022-08-18T04:17:24;16.05;;;11.48;;
46158;SDS011;31888;44.512;26.104;2022-08-18T04:19:31;20.67;;;10.75;;
46158;SDS011;31888;44.512;26.104;2022-08-18T04:21:37;16.90;;;11.68;;
46158;SDS011;31888;44.512;26.104;2022-08-18T04:23:43;14.70;;;11.32;;
46158;SDS011;31888;44.512;26.104;2022-08-18T04:25:54;14.85;;;10.07;;
46158;SDS011;31888;44.512;26.104;2022-08-18T04:27:59;13.30;;;10.35;;
46158;SDS011;31888;44.512;26.104;2022-08-18T04:30:05;16.67;;;10.20;;
46158;SDS011;31888;44.512;26.104;2022-08-18T04:32:10;16.05;;;9.57;;
46158;SDS011;31888;44.512;26.104;2022-08-18T04:34:15;14.32;;;9.95;;
46158;SDS011;31888;44.512;26.104;2022-08-18T04:36:23;19.38;;;10.55;;
46158;SDS011;31888;44.512;26.104;2022-08-18T04:38:28;15.00;;;9.95;;
46158;SDS011;31888;44.512;26.104;2022-08-18T04:40:33;15.55;;;10.40;;
46158;SDS011;31888;44.512;26.104;2022-08-18T04:42:37;13.40;;;10.50;;
46158;SDS011;31888;44.512;26.104;2022-08-18T04:44:44;15.75;;;10.45;;
46158;SDS011;31888;44.512;26.104;2022-08-18T04:46:49;13.57;;;10.52;;
46158;SDS011;31888;44.512;26.104;2022-08-18T04:48:56;13.18;;;10.27;;
46158;SDS011;31888;44.512;26.104;2022-08-18T04:51:04;12.98;;;10.38;;
46158;SDS011;31888;44.512;26.104;2022-08-18T04:53:12;14.80;;;10.35;;
46158;SDS011;31888;44.512;26.104;2022-08-18T04:55:34;14.27;;;10.43;;
46158;SDS011;31888;44.512;26.104;2022-08-18T04:57:38;19.15;;;10.65;;
46158;SDS011;31888;44.512;26.104;2022-08-18T04:59:45;14.73;;;10.82;;
46158;SDS011;31888;44.512;26.104;2022-08-18T05:01:51;20.42;;;12.27;;
46158;SDS011;31888;44.512;26.104;2022-08-18T05:03:56;20.83;;;11.77;;
46158;SDS011;31888;44.512;26.104;2022-08-18T05:06:02;13.73;;;11.07;;
46158;SDS011;31888;44.512;26.104;2022-08-18T05:08:08;24.02;;;11.93;;
46158;SDS011;31888;44.512;26.104;2022-08-18T05:10:14;15.38;;;10.70;;
46158;SDS011;31888;44.512;26.104;2022-08-18T05:12:20;19.00;;;10.57;;
46158;SDS011;31888;44.512;26.104;2022-08-18T05:14:28;14.95;;;10.85;;
46158;SDS011;31888;44.512;26.104;2022-08-18T05:16:32;16.50;;;10.77;;
46158;SDS011;31888;44.512;26.104;2022-08-18T05:18:50;13.05;;;9.63;;
46158;SDS011;31888;44.512;26.104;2022-08-18T05:20:57;18.13;;;9.60;;
46158;SDS011;31888;44.512;26.104;2022-08-18T05:23:03;15.90;;;9.20;;
46158;SDS011;31888;44.512;26.104;2022-08-18T05:25:08;12.30;;;8.38;;
46158;SDS011;31888;44.512;26.104;2022-08-18T05:27:16;12.93;;;8.68;;
46158;SDS011;31888;44.512;26.104;2022-08-18T05:29:21;13.88;;;8.50;;
46158;SDS011;31888;44.512;26.104;2022-08-18T05:31:27;17.75;;;9.48;;
46158;SDS011;31888;44.512;26.104;2022-08-18T05:33:34;11.88;;;9.55;;
46158;SDS011;31888;44.512;26.104;2022-08-18T05:35:42;12.45;;;9.02;;
46158;SDS011;31888;44.512;26.104;2022-08-18T05:40:29;14.70;;;10.15;;
46158;SDS011;31888;44.512;26.104;2022-08-18T05:42:36;17.40;;;10.13;;
46158;SDS011;31888;44.512;26.104;2022-08-18T05:44:43;12.88;;;10.25;;
46158;SDS011;31888;44.512;26.104;2022-08-18T05:46:50;16.85;;;10.85;;
46158;SDS011;31888;44.512;26.104;2022-08-18T05:48:56;14.82;;;10.90;;
46158;SDS011;31888;44.512;26.104;2022-08-18T05:51:02;17.50;;;11.20;;
46158;SDS011;31888;44.512;26.104;2022-08-18T05:53:16;17.73;;;11.63;;
46158;SDS011;31888;44.512;26.104;2022-08-18T05:55:23;16.75;;;11.35;;
46158;SDS011;31888;44.512;26.104;2022-08-18T05:57:51;16.60;;;10.88;;
46158;SDS011;31888;44.512;26.104;2022-08-18T06:02:14;14.82;;;10.60;;
46158;SDS011;31888;44.512;26.104;2022-08-18T06:04:29;23.08;;;11.27;;
46158;SDS011;31888;44.512;26.104;2022-08-18T06:06:42;16.70;;;11.55;;
46158;SDS011;31888;44.512;26.104;2022-08-18T06:08:51;16.08;;;11.05;;
46158;SDS011;31888;44.512;26.104;2022-08-18T06:11:01;14.32;;;10.65;;
46158;SDS011;31888;44.512;26.104;2022-08-18T06:13:08;13.70;;;11.48;;
46158;SDS011;31888;44.512;26.104;2022-08-18T06:15:16;19.13;;;12.57;;
46158;SDS011;31888;44.512;26.104;2022-08-18T06:17:35;15.00;;;10.65;;
46158;SDS011;31888;44.512;26.104;2022-08-18T06:19:57;16.40;;;11.68;;
46158;SDS011;31888;44.512;26.104;2022-08-18T06:22:09;14.27;;;10.68;;
46158;SDS011;31888;44.512;26.104;2022-08-18T06:24:25;16.90;;;11.57;;
46158;SDS011;31888;44.512;26.104;2022-08-18T06:26:35;15.27;;;10.45;;
46158;SDS011;31888;44.512;26.104;2022-08-18T06:28:50;13.23;;;10.82;;
46158;SDS011;31888;44.512;26.104;2022-08-18T06:31:03;13.48;;;10.55;;
46158;SDS011;31888;44.512;26.104;2022-08-18T06:33:20;15.85;;;10.57;;
46158;SDS011;31888;44.512;26.104;2022-08-18T06:35:48;15.63;;;10.63;;
46158;SDS011;31888;44.512;26.104;2022-08-18T06:37:55;15.98;;;11.13;;
46158;SDS011;31888;44.512;26.104;2022-08-18T06:40:27;14.13;;;11.70;;
46158;SDS011;31888;44.512;26.104;2022-08-18T06:42:32;18.48;;;11.32;;
46158;SDS011;31888;44.512;26.104;2022-08-18T06:44:44;15.50;;;11.88;;
46158;SDS011;31888;44.512;26.104;2022-08-18T06:46:53;15.85;;;11.52;;
46158;SDS011;31888;44.512;26.104;2022-08-18T06:49:01;16.05;;;11.57;;
46158;SDS011;31888;44.512;26.104;2022-08-18T06:51:07;16.80;;;11.02;;
46158;SDS011;31888;44.512;26.104;2022-08-18T06:53:14;17.70;;;10.98;;
46158;SDS011;31888;44.512;26.104;2022-08-18T06:55:30;15.27;;;10.55;;
46158;SDS011;31888;44.512;26.104;2022-08-18T06:57:51;13.30;;;11.15;;
46158;SDS011;31888;44.512;26.104;2022-08-18T07:00:06;16.33;;;10.68;;
46158;SDS011;31888;44.512;26.104;2022-08-18T07:02:15;15.50;;;10.80;;
46158;SDS011;31888;44.512;26.104;2022-08-18T07:04:57;19.38;;;11.02;;
46158;SDS011;31888;44.512;26.104;2022-08-18T07:11:58;25.20;;;10.68;;
46158;SDS011;31888;44.512;26.104;2022-08-18T07:14:12;19.23;;;11.63;;
46158;SDS011;31888;44.512;26.104;2022-08-18T07:16:43;15.80;;;10.23;;
46158;SDS011;31888;44.512;26.104;2022-08-18T07:19:06;15.20;;;10.82;;
46158;SDS011;31888;44.512;26.104;2022-08-18T07:21:24;16.17;;;10.93;;
46158;SDS011;31888;44.512;26.104;2022-08-18T07:23:32;16.13;;;10.40;;
46158;SDS011;31888;44.512;26.104;2022-08-18T07:25:41;19.40;;;11.00;;
46158;SDS011;31888;44.512;26.104;2022-08-18T07:27:50;17.15;;;10.93;;
46158;SDS011;31888;44.512;26.104;2022-08-18T07:30:10;16.15;;;11.48;;
46158;SDS011;31888;44.512;26.104;2022-08-18T07:56:12;17.33;;;9.57;;
46158;SDS011;31888;44.512;26.104;2022-08-18T07:58:31;11.05;;;9.27;;
46158;SDS011;31888;44.512;26.104;2022-08-18T08:00:46;16.20;;;10.30;;
46158;SDS011;31888;44.512;26.104;2022-08-18T08:23:28;22.35;;;11.05;;
46158;SDS011;31888;44.512;26.104;2022-08-18T08:55:23;15.57;;;10.98;;
46158;SDS011;31888;44.512;26.104;2022-08-18T08:57:46;15.60;;;11.48;;
46158;SDS011;31888;44.512;26.104;2022-08-18T09:00:05;20.75;;;11.68;;
46158;SDS011;31888;44.512;26.104;2022-08-18T09:04:59;20.63;;;12.45;;
46158;SDS011;31888;44.512;26.104;2022-08-18T09:07:23;13.02;;;11.30;;
46158;SDS011;31888;44.512;26.104;2022-08-18T09:09:53;16.55;;;11.15;;
46158;SDS011;31888;44.512;26.104;2022-08-18T09:12:22;16.67;;;11.55;;
46158;SDS011;31888;44.512;26.104;2022-08-18T09:17:29;17.92;;;11.43;;
46158;SDS011;31888;44.512;26.104;2022-08-18T09:19:59;14.15;;;11.20;;
46158;SDS011;31888;44.512;26.104;2022-08-18T09:22:21;14.25;;;11.43;;
46158;SDS011;31888;44.512;26.104;2022-08-18T09:24:55;16.05;;;11.05;;
46158;SDS011;31888;44.512;26.104;2022-08-18T09:27:14;14.43;;;11.02;;
46158;SDS011;31888;44.512;26.104;2022-08-18T09:29:45;19.77;;;11.18;;
46158;SDS011;31888;44.512;26.104;2022-08-18T09:35:06;15.57;;;11.90;;
46158;SDS011;31888;44.512;26.104;2022-08-18T09:37:42;17.02;;;11.48;;
46158;SDS011;31888;44.512;26.104;2022-08-18T09:40:13;16.20;;;11.50;;
46158;SDS011;31888;44.512;26.104;2022-08-18T09:43:05;18.05;;;11.55;;
46158;SDS011;31888;44.512;26.104;2022-08-18T09:45:50;15.82;;;10.70;;
46158;SDS011;31888;44.512;26.104;2022-08-18T09:48:00;16.38;;;11.15;;
46158;SDS011;31888;44.512;26.104;2022-08-18T09:50:49;17.45;;;10.57;;
46158;SDS011;31888;44.512;26.104;2022-08-18T09:59:11;18.30;;;10.50;;
46158;SDS011;31888;44.512;26.104;2022-08-18T10:01:39;15.43;;;10.63;;
46158;SDS011;31888;44.512;26.104;2022-08-18T10:07:19;13.18;;;10.45;;
46158;SDS011;31888;44.512;26.104;2022-08-18T10:10:17;17.83;;;11.35;;
46158;SDS011;31888;44.512;26.104;2022-08-18T10:21:10;13.85;;;10.65;;
46158;SDS011;31888;44.512;26.104;2022-08-18T10:27:00;19.25;;;12.35;;
46158;SDS011;31888;44.512;26.104;2022-08-18T10:34:37;16.42;;;11.43;;
46158;SDS011;31888;44.512;26.104;2022-08-18T10:37:01;18.92;;;11.80;;
46158;SDS011;31888;44.512;26.104;2022-08-18T10:39:21;14.68;;;10.82;;
46158;SDS011;31888;44.512;26.104;2022-08-18T10:41:55;13.93;;;11.32;;
46158;SDS011;31888;44.512;26.104;2022-08-18T10:44:05;15.52;;;10.88;;
46158;SDS011;31888;44.512;26.104;2022-08-18T10:46:31;19.92;;;12.30;;
46158;SDS011;31888;44.512;26.104;2022-08-18T10:48:58;16.50;;;11.32;;
46158;SDS011;31888;44.512;26.104;2022-08-18T10:51:13;16.98;;;11.15;;
46158;SDS011;31888;44.512;26.104;2022-08-18T10:53:37;15.27;;;11.05;;
46158;SDS011;31888;44.512;26.104;2022-08-18T10:55:49;18.38;;;11.75;;
46158;SDS011;31888;44.512;26.104;2022-08-18T11:00:57;15.00;;;11.05;;
46158;SDS011;31888;44.512;26.104;2022-08-18T11:03:28;23.70;;;12.55;;
46158;SDS011;31888;44.512;26.104;2022-08-18T11:06:02;23.58;;;13.02;;
46158;SDS011;31888;44.512;26.104;2022-08-18T11:08:16;23.35;;;12.13;;
46158;SDS011;31888;44.512;26.104;2022-08-18T11:10:35;21.77;;;12.40;;
46158;SDS011;31888;44.512;26.104;2022-08-18T11:13:07;21.63;;;13.32;;
46158;SDS011;31888;44.512;26.104;2022-08-18T11:15:23;20.23;;;12.48;;
46158;SDS011;31888;44.512;26.104;2022-08-18T11:17:42;21.05;;;12.32;;
46158;SDS011;31888;44.512;26.104;2022-08-18T11:19:55;19.45;;;12.05;;
46158;SDS011;31888;44.512;26.104;2022-08-18T11:22:02;20.95;;;11.48;;
46158;SDS011;31888;44.512;26.104;2022-08-18T11:24:13;31.58;;;14.23;;
46158;SDS011;31888;44.512;26.104;2022-08-18T11:26:20;17.27;;;12.43;;
46158;SDS011;31888;44.512;26.104;2022-08-18T11:28:26;21.77;;;12.82;;
46158;SDS011;31888;44.512;26.104;2022-08-18T11:30:34;23.58;;;12.75;;
46158;SDS011;31888;44.512;26.104;2022-08-18T11:32:53;18.95;;;12.00;;
46158;SDS011;31888;44.512;26.104;2022-08-18T11:35:00;21.52;;;12.52;;
46158;SDS011;31888;44.512;26.104;2022-08-18T11:37:18;16.75;;;11.57;;
46158;SDS011;31888;44.512;26.104;2022-08-18T11:39:29;21.08;;;12.18;;
46158;SDS011;31888;44.512;26.104;2022-08-18T11:41:45;13.45;;;11.75;;
46158;SDS011;31888;44.512;26.104;2022-08-18T11:43:54;18.13;;;12.40;;
46158;SDS011;31888;44.512;26.104;2022-08-18T11:46:36;17.88;;;12.02;;
46158;SDS011;31888;44.512;26.104;2022-08-18T11:49:15;21.52;;;11.68;;
46158;SDS011;31888;44.512;26.104;2022-08-18T11:51:33;20.75;;;11.75;;
46158;SDS011;31888;44.512;26.104;2022-08-18T11:53:56;13.80;;;11.38;;
46158;SDS011;31888;44.512;26.104;2022-08-18T11:56:04;15.98;;;11.65;;
46158;SDS011;31888;44.512;26.104;2022-08-18T12:00:54;15.35;;;11.05;;
46158;SDS011;31888;44.512;26.104;2022-08-18T12:03:18;16.27;;;12.38;;
46158;SDS011;31888;44.512;26.104;2022-08-18T12:05:46;31.25;;;13.50;;
46158;SDS011;31888;44.512;26.104;2022-08-18T12:07:57;21.55;;;12.70;;
46158;SDS011;31888;44.512;26.104;2022-08-18T12:10:12;25.27;;;12.63;;
46158;SDS011;31888;44.512;26.104;2022-08-18T12:12:30;25.90;;;13.02;;
46158;SDS011;31888;44.512;26.104;2022-08-18T12:14:53;23.13;;;12.60;;
46158;SDS011;31888;44.512;26.104;2022-08-18T12:17:21;23.83;;;13.82;;
46158;SDS011;31888;44.512;26.104;2022-08-18T12:19:30;20.10;;;12.90;;
46158;SDS011;31888;44.512;26.104;2022-08-18T12:21:43;20.83;;;12.65;;
46158;SDS011;31888;44.512;26.104;2022-08-18T12:23:56;18.10;;;12.65;;
46158;SDS011;31888;44.512;26.104;2022-08-18T12:26:01;19.77;;;13.35;;
46158;SDS011;31888;44.512;26.104;2022-08-18T12:28:28;23.17;;;12.15;;
46158;SDS011;31888;44.512;26.104;2022-08-18T12:30:50;18.80;;;12.13;;
46158;SDS011;31888;44.512;26.104;2022-08-18T12:33:00;19.30;;;13.07;;
46158;SDS011;31888;44.512;26.104;2022-08-18T12:35:17;16.25;;;12.48;;
46158;SDS011;31888;44.512;26.104;2022-08-18T12:37:30;22.38;;;13.55;;
46158;SDS011;31888;44.512;26.104;2022-08-18T12:40:05;21.50;;;12.32;;
46158;SDS011;31888;44.512;26.104;2022-08-18T12:42:26;23.25;;;13.13;;
46158;SDS011;31888;44.512;26.104;2022-08-18T12:44:44;21.35;;;12.65;;
46158;SDS011;31888;44.512;26.104;2022-08-18T12:47:06;23.17;;;12.35;;
46158;SDS011;31888;44.512;26.104;2022-08-18T12:49:54;24.77;;;13.52;;
46158;SDS011;31888;44.512;26.104;2022-08-18T12:52:38;19.08;;;13.98;;
46158;SDS011;31888;44.512;26.104;2022-08-18T12:54:56;26.73;;;13.00;;
46158;SDS011;31888;44.512;26.104;2022-08-18T12:57:54;21.40;;;13.25;;
46158;SDS011;31888;44.512;26.104;2022-08-18T13:00:27;23.83;;;12.23;;
46158;SDS011;31888;44.512;26.104;2022-08-18T13:02:47;22.80;;;12.75;;
46158;SDS011;31888;44.512;26.104;2022-08-18T13:04:56;24.10;;;13.98;;
46158;SDS011;31888;44.512;26.104;2022-08-18T13:07:10;18.80;;;12.30;;
46158;SDS011;31888;44.512;26.104;2022-08-18T13:10:31;19.75;;;13.52;;
46158;SDS011;31888;44.512;26.104;2022-08-18T13:13:29;20.05;;;13.18;;
46158;SDS011;31888;44.512;26.104;2022-08-18T13:15:44;16.77;;;11.57;;
46158;SDS011;31888;44.512;26.104;2022-08-18T13:18:35;15.73;;;11.82;;
46158;SDS011;31888;44.512;26.104;2022-08-18T13:21:15;16.20;;;11.93;;
46158;SDS011;31888;44.512;26.104;2022-08-18T13:23:21;17.95;;;12.00;;
46158;SDS011;31888;44.512;26.104;2022-08-18T13:29:41;20.05;;;12.20;;
46158;SDS011;31888;44.512;26.104;2022-08-18T13:31:59;21.70;;;11.75;;
46158;SDS011;31888;44.512;26.104;2022-08-18T13:34:31;16.15;;;12.52;;
46158;SDS011;31888;44.512;26.104;2022-08-18T13:37:24;22.33;;;13.18;;
46158;SDS011;31888;44.512;26.104;2022-08-18T13:39:55;28.25;;;12.88;;
46158;SDS011;31888;44.512;26.104;2022-08-18T13:42:25;16.55;;;11.88;;
46158;SDS011;31888;44.512;26.104;2022-08-18T13:48:40;18.00;;;11.77;;
46158;SDS011;31888;44.512;26.104;2022-08-18T13:51:23;18.05;;;12.25;;
46158;SDS011;31888;44.512;26.104;2022-08-18T13:54:07;15.35;;;11.65;;
46158;SDS011;31888;44.512;26.104;2022-08-18T13:56:35;19.52;;;12.55;;
46158;SDS011;31888;44.512;26.104;2022-08-18T13:59:31;25.52;;;12.35;;
46158;SDS011;31888;44.512;26.104;2022-08-18T14:01:59;22.23;;;11.23;;
46158;SDS011;31888;44.512;26.104;2022-08-18T14:04:40;19.73;;;11.27;;
46158;SDS011;31888;44.512;26.104;2022-08-18T14:07:01;23.30;;;11.30;;
46158;SDS011;31888;44.512;26.104;2022-08-18T14:09:44;18.88;;;11.43;;
46158;SDS011;31888;44.512;26.104;2022-08-18T14:11:55;14.77;;;11.18;;
46158;SDS011;31888;44.512;26.104;2022-08-18T14:14:25;23.15;;;12.45;;
46158;SDS011;31888;44.512;26.104;2022-08-18T14:16:32;21.77;;;12.23;;
46158;SDS011;31888;44.512;26.104;2022-08-18T14:18:44;20.95;;;11.13;;
46158;SDS011;31888;44.512;26.104;2022-08-18T14:21:12;22.63;;;12.25;;
46158;SDS011;31888;44.512;26.104;2022-08-18T14:23:37;13.45;;;10.13;;
46158;SDS011;31888;44.512;26.104;2022-08-18T14:26:02;17.67;;;11.27;;
46158;SDS011;31888;44.512;26.104;2022-08-18T14:28:35;22.58;;;10.50;;
46158;SDS011;31888;44.512;26.104;2022-08-18T14:30:44;19.85;;;10.98;;
46158;SDS011;31888;44.512;26.104;2022-08-18T14:33:49;16.63;;;11.27;;
46158;SDS011;31888;44.512;26.104;2022-08-18T14:36:52;17.90;;;10.93;;
46158;SDS011;31888;44.512;26.104;2022-08-18T14:39:49;17.67;;;11.32;;
46158;SDS011;31888;44.512;26.104;2022-08-18T14:41:59;13.95;;;11.77;;
46158;SDS011;31888;44.512;26.104;2022-08-18T14:44:19;22.95;;;11.65;;
46158;SDS011;31888;44.512;26.104;2022-08-18T14:49:59;17.38;;;11.23;;
46158;SDS011;31888;44.512;26.104;2022-08-18T14:52:52;17.08;;;10.70;;
46158;SDS011;31888;44.512;26.104;2022-08-18T14:55:58;16.95;;;11.10;;
46158;SDS011;31888;44.512;26.104;2022-08-18T14:58:06;16.70;;;11.98;;
46158;SDS011;31888;44.512;26.104;2022-08-18T15:00:13;12.93;;;11.43;;
46158;SDS011;31888;44.512;26.104;2022-08-18T15:02:25;16.38;;;12.13;;
46158;SDS011;31888;44.512;26.104;2022-08-18T15:04:39;17.25;;;11.18;;
46158;SDS011;31888;44.512;26.104;2022-08-18T15:07:18;18.55;;;11.15;;
46158;SDS011;31888;44.512;26.104;2022-08-18T15:10:26;12.50;;;10.77;;
46158;SDS011;31888;44.512;26.104;2022-08-18T15:12:51;16.30;;;11.13;;
46158;SDS011;31888;44.512;26.104;2022-08-18T15:14:59;18.35;;;11.38;;
46158;SDS011;31888;44.512;26.104;2022-08-18T15:17:08;20.40;;;11.15;;
46158;SDS011;31888;44.512;26.104;2022-08-18T15:19:21;15.45;;;11.52;;